Time;durP1;ratioP1;P1;durP2;ratioP2;P2;SDS_P1;SDS_P2;PMS_P1;PMS_P2;Temp;Humidity;BMP_temperature;BMP_pressure;BME280_temperature;BME280_humidity;BME280_pressure;Samples;Min_cycle;Max_cycle;Signal;HPM_P1;HPM_P2
2022/12/19 00:01:17;;;;;;;29.38;12.85;;;1.20;99.90;;;;;;5049799;28;20088;-69
2022/12/19 00:03:44;;;;;;;31.90;15.27;;;1.20;99.90;;;;;;5049194;28;20095;-68
2022/12/19 00:06:11;;;;;;;37.50;15.70;;;1.20;99.90;;;;;;5044454;28;20040;-68
2022/12/19 00:08:37;;;;;;;30.27;13.93;;;1.20;99.90;;;;;;5048752;28;20037;-69
2022/12/19 00:11:03;;;;;;;26.92;15.35;;;1.20;99.90;;;;;;5049558;28;20055;-68
2022/12/19 00:13:30;;;;;;;28.25;14.63;;;1.30;99.90;;;;;;5050590;28;20041;-68
2022/12/19 00:16:04;;;;;;;30.13;14.30;;;1.30;99.90;;;;;;5048799;28;20044;-68
2022/12/19 00:18:30;;;;;;;29.80;15.43;;;1.30;99.90;;;;;;5032735;28;20045;-68
2022/12/19 00:20:57;;;;;;;28.95;14.05;;;1.30;99.90;;;;;;5048666;28;20056;-69
2022/12/19 00:23:23;;;;;;;35.28;15.80;;;1.30;99.90;;;;;;5049354;28;20036;-69
2022/12/19 00:25:49;;;;;;;29.38;13.50;;;1.30;99.90;;;;;;5048038;28;20041;-68
2022/12/19 00:28:14;;;;;;;27.95;13.40;;;1.30;99.90;;;;;;5050515;28;20106;-69
2022/12/19 00:30:40;;;;;;;34.22;15.65;;;1.40;99.90;;;;;;5050713;28;20048;-68
2022/12/19 00:33:05;;;;;;;30.70;12.80;;;1.40;99.90;;;;;;5050721;28;20052;-68
2022/12/19 00:35:31;;;;;;;30.65;14.98;;;1.40;99.90;;;;;;5049647;28;20037;-68
2022/12/19 00:37:57;;;;;;;35.97;15.80;;;1.40;99.90;;;;;;5050457;28;20086;-69
2022/12/19 00:40:22;;;;;;;29.30;14.40;;;1.40;99.90;;;;;;5050560;28;20033;-68
2022/12/19 00:42:48;;;;;;;36.60;15.40;;;1.40;99.90;;;;;;5050337;28;20041;-69
2022/12/19 00:45:13;;;;;;;32.25;14.07;;;1.40;99.90;;;;;;5049651;28;20409;-68
2022/12/19 00:47:39;;;;;;;25.08;12.57;;;1.40;99.90;;;;;;5049071;28;20041;-68
2022/12/19 00:50:05;;;;;;;32.10;15.27;;;1.40;99.90;;;;;;5050343;28;20063;-68
2022/12/19 00:52:30;;;;;;;32.88;14.70;;;1.50;99.90;;;;;;5050588;28;20191;-68
2022/12/19 00:54:56;;;;;;;33.95;14.55;;;1.50;99.90;;;;;;5048372;28;20443;-68
2022/12/19 00:57:21;;;;;;;31.63;13.60;;;1.50;99.90;;;;;;5049273;28;20041;-68
2022/12/19 00:59:47;;;;;;;32.08;14.52;;;1.50;99.90;;;;;;5050186;28;20095;-69
2022/12/19 01:02:12;;;;;;;32.33;14.48;;;1.50;99.90;;;;;;5048834;28;20052;-68
2022/12/19 01:04:38;;;;;;;32.13;14.80;;;1.50;99.90;;;;;;5048080;28;20689;-69
2022/12/19 01:07:06;;;;;;;38.10;15.00;;;1.60;99.90;;;;;;5050401;28;20049;-69
2022/12/19 01:09:33;;;;;;;29.52;14.50;;;1.60;99.90;;;;;;5050249;28;20037;-68
2022/12/19 01:14:43;;;;;;;31.13;14.77;;;1.60;99.90;;;;;;5048054;28;20522;-68
2022/12/19 01:17:08;;;;;;;31.30;15.25;;;1.60;99.90;;;;;;5048991;28;20080;-68
2022/12/19 01:19:35;;;;;;;31.60;14.18;;;1.60;99.90;;;;;;5047620;28;20075;-68
2022/12/19 01:22:00;;;;;;;28.25;12.68;;;1.70;99.90;;;;;;5050130;28;20137;-68
2022/12/19 01:24:26;;;;;;;33.72;15.63;;;1.70;99.90;;;;;;5048007;28;20525;-69
2022/12/19 01:26:52;;;;;;;31.15;14.90;;;1.70;99.90;;;;;;5048951;28;20095;-68
2022/12/19 01:29:17;;;;;;;31.88;13.57;;;1.70;99.90;;;;;;5048820;28;20077;-68
2022/12/19 01:31:43;;;;;;;31.95;14.20;;;1.70;99.90;;;;;;5048722;28;20045;-68
2022/12/19 01:34:08;;;;;;;29.52;15.23;;;1.70;99.90;;;;;;5049380;28;20408;-68
2022/12/19 01:36:34;;;;;;;34.47;14.38;;;1.80;99.90;;;;;;5050229;28;20040;-68
2022/12/19 01:38:59;;;;;;;34.13;15.73;;;1.80;99.90;;;;;;5053293;28;20037;-69
2022/12/19 01:41:25;;;;;;;31.45;15.40;;;1.80;99.90;;;;;;5053607;28;20386;-68
2022/12/19 01:43:58;;;;;;;28.95;14.38;;;1.80;99.90;;;;;;5052663;28;20064;-68
2022/12/19 01:46:34;;;;;;;32.83;15.65;;;1.80;99.90;;;;;;5053362;28;20114;-68
2022/12/19 01:49:01;;;;;;;32.90;14.18;;;1.80;99.90;;;;;;5053317;28;20497;-68
2022/12/19 01:51:34;;;;;;;34.20;15.18;;;1.80;99.90;;;;;;5053324;28;20044;-68
2022/12/19 01:54:05;;;;;;;33.70;14.77;;;1.90;99.90;;;;;;5052719;28;20571;-68
2022/12/19 01:56:35;;;;;;;31.73;14.35;;;1.80;99.90;;;;;;5053242;28;20033;-68
2022/12/19 01:59:12;;;;;;;32.85;14.70;;;1.80;99.90;;;;;;5053316;28;20029;-69
2022/12/19 02:01:39;;;;;;;34.63;14.63;;;1.90;99.90;;;;;;5053301;28;20382;-69
2022/12/19 02:04:05;;;;;;;35.38;15.85;;;1.90;99.90;;;;;;5034432;28;20087;-69
2022/12/19 02:06:33;;;;;;;30.20;14.75;;;1.90;99.90;;;;;;5052900;28;20532;-68
2022/12/19 02:08:59;;;;;;;33.08;14.10;;;1.90;99.90;;;;;;5052932;28;20040;-69
2022/12/19 02:11:25;;;;;;;30.83;13.07;;;1.90;99.90;;;;;;5052842;28;20099;-68
2022/12/19 02:13:50;;;;;;;33.80;14.20;;;2.00;99.90;;;;;;5052249;28;20045;-69
2022/12/19 02:16:28;;;;;;;36.72;14.27;;;2.00;99.90;;;;;;5053033;28;20048;-69
2022/12/19 02:19:19;;;;;;;33.47;13.68;;;2.00;99.90;;;;;;5052835;28;20084;-69
2022/12/19 02:22:16;;;;;;;28.58;13.63;;;2.00;99.90;;;;;;5051337;28;20085;-69
2022/12/19 02:25:23;;;;;;;31.70;15.35;;;2.10;99.90;;;;;;5030582;28;20102;-68
2022/12/19 02:28:06;;;;;;;38.58;16.05;;;2.00;99.90;;;;;;5051447;28;20041;-68
2022/12/19 02:31:03;;;;;;;32.20;15.02;;;2.10;99.90;;;;;;5052776;28;20402;-68
2022/12/19 02:33:37;;;;;;;30.13;12.90;;;2.00;99.90;;;;;;5034714;28;20044;-68
2022/12/19 02:36:17;;;;;;;35.55;14.65;;;2.00;99.90;;;;;;5051695;28;20133;-67
2022/12/19 02:38:51;;;;;;;33.63;15.20;;;2.00;99.90;;;;;;5052417;28;20052;-68
2022/12/19 02:41:27;;;;;;;31.85;14.63;;;2.00;99.90;;;;;;5051161;28;20049;-69
2022/12/19 02:43:55;;;;;;;31.67;13.90;;;2.00;99.90;;;;;;5051589;28;20101;-69
2022/12/19 02:46:22;;;;;;;36.72;15.48;;;2.00;99.90;;;;;;5052548;28;20041;-69
2022/12/19 02:48:49;;;;;;;31.67;14.38;;;2.00;99.90;;;;;;5051664;28;20040;-69
2022/12/19 02:51:15;;;;;;;29.40;14.43;;;2.00;99.90;;;;;;5050954;28;20103;-69
2022/12/19 02:53:41;;;;;;;35.13;15.40;;;2.00;99.90;;;;;;5050440;28;20045;-69
2022/12/19 02:56:13;;;;;;;36.28;14.43;;;2.00;99.90;;;;;;5050608;28;20095;-70
2022/12/19 02:59:02;;;;;;;30.70;14.68;;;2.00;99.90;;;;;;5051125;28;20561;-69
2022/12/19 03:01:46;;;;;;;34.00;15.02;;;2.00;99.90;;;;;;5052112;28;20041;-70
2022/12/19 03:04:28;;;;;;;29.92;13.80;;;2.00;99.90;;;;;;5049765;28;20052;-70
2022/12/19 03:07:09;;;;;;;32.95;15.13;;;2.00;99.90;;;;;;5051660;28;20044;-69
2022/12/19 03:10:09;;;;;;;33.58;14.57;;;2.00;99.90;;;;;;5051688;28;20037;-69
2022/12/19 03:12:44;;;;;;;35.67;14.18;;;2.00;99.90;;;;;;5028640;28;20263;-69
2022/12/19 03:15:10;;;;;;;33.22;14.48;;;2.10;99.90;;;;;;5049782;28;20041;-70
2022/12/19 03:17:37;;;;;;;36.58;15.25;;;2.10;99.90;;;;;;5050416;28;20044;-70
2022/12/19 03:20:17;;;;;;;33.22;14.77;;;2.10;99.90;;;;;;5050659;28;20056;-70
2022/12/19 03:22:43;;;;;;;29.20;14.68;;;2.10;99.90;;;;;;5051534;28;20091;-70
2022/12/19 03:25:08;;;;;;;28.88;14.23;;;2.10;99.90;;;;;;5049624;28;20075;-70
2022/12/19 03:27:38;;;;;;;37.05;16.38;;;2.20;99.90;;;;;;5051755;28;20054;-70
2022/12/19 03:30:09;;;;;;;36.22;15.55;;;2.20;99.90;;;;;;5050204;28;20147;-70
2022/12/19 03:32:37;;;;;;;41.78;16.50;;;2.20;99.90;;;;;;5050149;28;20043;-69
2022/12/19 03:35:25;;;;;;;36.95;16.52;;;2.30;99.90;;;;;;5033101;28;20493;-69
2022/12/19 03:37:57;;;;;;;37.17;16.90;;;2.30;99.90;;;;;;5050432;28;20056;-69
2022/12/19 03:40:25;;;;;;;39.85;16.40;;;2.30;99.90;;;;;;5051500;28;20037;-69
2022/12/19 03:43:10;;;;;;;37.42;15.65;;;2.40;99.90;;;;;;5051246;28;20045;-69
2022/12/19 03:45:46;;;;;;;33.70;14.93;;;2.40;99.90;;;;;;5049573;28;20570;-70
2022/12/19 03:48:25;;;;;;;31.90;14.02;;;2.50;99.90;;;;;;5050190;28;20446;-70
2022/12/19 03:51:35;;;;;;;34.08;14.60;;;2.50;99.90;;;;;;5050081;28;20584;-69
2022/12/19 03:54:25;;;;;;;40.92;15.80;;;2.50;99.90;;;;;;5036325;28;20577;-70
2022/12/19 03:57:02;;;;;;;32.72;16.45;;;2.60;99.90;;;;;;5049867;28;20519;-69
2022/12/19 03:59:40;;;;;;;36.72;15.90;;;2.60;99.90;;;;;;5050256;28;20045;-70
2022/12/19 04:02:07;;;;;;;37.75;16.23;;;2.60;99.90;;;;;;5049767;28;20040;-70
2022/12/19 04:04:39;;;;;;;40.28;17.88;;;2.60;99.90;;;;;;5050094;28;20045;-70
2022/12/19 04:07:06;;;;;;;35.63;16.63;;;2.70;99.90;;;;;;5051267;28;20384;-71
2022/12/19 04:09:32;;;;;;;42.90;17.95;;;2.70;99.90;;;;;;5049452;28;20099;-70
2022/12/19 04:12:09;;;;;;;38.15;17.35;;;2.70;99.90;;;;;;5051065;28;20059;-69
2022/12/19 04:14:37;;;;;;;33.30;15.63;;;2.70;99.90;;;;;;5048970;28;20060;-70
2022/12/19 04:17:32;;;;;;;39.95;18.23;;;2.70;99.90;;;;;;5050800;28;20041;-70
2022/12/19 04:20:04;;;;;;;38.17;17.17;;;2.70;99.90;;;;;;5047690;28;20508;-70
2022/12/19 04:22:53;;;;;;;31.43;16.73;;;2.80;99.90;;;;;;5049420;28;20513;-70
2022/12/19 04:25:27;;;;;;;38.33;15.80;;;2.80;99.90;;;;;;5049829;28;20263;-70
2022/12/19 04:28:02;;;;;;;44.95;19.00;;;2.80;99.90;;;;;;5050852;28;20103;-70
2022/12/19 04:30:28;;;;;;;38.08;16.40;;;2.80;99.90;;;;;;5049651;28;20370;-70
2022/12/19 04:32:55;;;;;;;35.03;16.13;;;2.80;99.90;;;;;;5050991;28;20048;-70
2022/12/19 04:35:20;;;;;;;34.45;17.40;;;2.90;99.90;;;;;;5048556;28;20045;-70
2022/12/19 04:37:46;;;;;;;45.05;19.88;;;2.90;99.90;;;;;;5049380;28;20041;-69
2022/12/19 04:40:12;;;;;;;36.60;16.95;;;2.90;99.90;;;;;;5050689;28;20044;-70
2022/12/19 04:42:38;;;;;;;30.35;15.57;;;2.90;99.90;;;;;;5050745;28;20183;-70
2022/12/19 04:45:04;;;;;;;35.58;15.73;;;3.00;99.90;;;;;;5048649;28;20119;-70
2022/12/19 04:47:30;;;;;;;36.88;15.82;;;3.00;99.90;;;;;;5050428;28;20037;-70
2022/12/19 04:49:55;;;;;;;43.13;16.48;;;3.00;99.90;;;;;;5050612;28;20043;-70
2022/12/19 04:52:21;;;;;;;31.40;14.85;;;3.10;99.90;;;;;;5032467;28;20412;-70
2022/12/19 04:54:47;;;;;;;37.70;17.27;;;3.10;99.90;;;;;;5050051;28;20098;-71
2022/12/19 04:57:12;;;;;;;36.53;16.20;;;3.10;99.90;;;;;;5049094;28;20044;-70
2022/12/19 04:59:38;;;;;;;34.85;15.40;;;3.10;99.90;;;;;;5048950;28;20126;-70
2022/12/19 05:02:03;;;;;;;36.70;16.25;;;3.10;99.90;;;;;;5048996;28;20045;-71
2022/12/19 05:04:29;;;;;;;37.20;16.63;;;3.20;99.90;;;;;;5048272;28;20041;-70
2022/12/19 05:06:54;;;;;;;35.60;15.93;;;3.20;99.90;;;;;;5049084;28;20486;-70
2022/12/19 05:09:20;;;;;;;34.35;16.10;;;3.30;99.90;;;;;;5050211;28;20044;-71
2022/12/19 05:11:46;;;;;;;39.55;17.33;;;3.30;99.90;;;;;;5052349;28;20037;-71
2022/12/19 05:14:11;;;;;;;32.08;15.60;;;3.30;99.90;;;;;;5053417;28;20037;-71
2022/12/19 05:16:37;;;;;;;36.05;16.02;;;3.30;99.90;;;;;;5054143;28;20098;-70
2022/12/19 05:19:02;;;;;;;36.97;16.25;;;3.30;99.90;;;;;;5054145;28;20051;-71
2022/12/19 05:21:28;;;;;;;36.38;16.35;;;3.30;99.90;;;;;;5053938;28;20555;-71
2022/12/19 05:23:53;;;;;;;35.42;16.67;;;3.30;99.90;;;;;;5053307;28;20037;-71
2022/12/19 05:26:19;;;;;;;30.77;13.88;;;3.40;99.90;;;;;;5052626;28;20410;-71
2022/12/19 05:28:45;;;;;;;31.58;16.60;;;3.40;99.90;;;;;;5052576;28;20041;-71
2022/12/19 05:31:17;;;;;;;37.35;16.23;;;3.40;99.90;;;;;;5035939;28;20124;-71
2022/12/19 05:33:43;;;;;;;36.13;16.08;;;3.50;99.90;;;;;;5035436;28;20071;-73
2022/12/19 05:36:10;;;;;;;35.83;17.38;;;3.50;99.90;;;;;;5052321;28;20040;-72
2022/12/19 05:38:36;;;;;;;34.40;15.57;;;3.60;99.90;;;;;;5052703;28;20435;-73
2022/12/19 05:41:10;;;;;;;38.40;15.82;;;3.60;99.90;;;;;;5035492;28;20093;-73
2022/12/19 05:43:36;;;;;;;31.95;14.68;;;3.60;99.90;;;;;;5052252;28;20041;-73
2022/12/19 05:46:03;;;;;;;33.85;15.93;;;3.60;99.90;;;;;;5051557;28;20386;-73
2022/12/19 05:48:29;;;;;;;33.50;16.13;;;3.60;99.90;;;;;;5052191;28;20037;-73
2022/12/19 05:50:54;;;;;;;33.40;15.98;;;3.70;99.90;;;;;;5053671;28;20037;-71
2022/12/19 05:53:20;;;;;;;31.45;15.18;;;3.70;99.90;;;;;;5052151;28;20513;-72
2022/12/19 05:55:45;;;;;;;31.17;14.20;;;3.70;99.90;;;;;;5051357;28;20581;-72
2022/12/19 05:58:11;;;;;;;30.50;15.65;;;3.70;99.90;;;;;;5035323;28;20044;-72
2022/12/19 06:00:37;;;;;;;29.10;14.50;;;3.80;99.90;;;;;;5053299;28;20147;-72
2022/12/19 06:03:02;;;;;;;33.05;14.60;;;3.80;99.90;;;;;;5051766;28;20049;-70
2022/12/19 06:05:30;;;;;;;29.95;14.95;;;3.80;99.90;;;;;;5052646;28;20037;-71
2022/12/19 06:07:55;;;;;;;27.60;14.25;;;3.80;99.90;;;;;;5053025;28;20516;-71
2022/12/19 06:10:21;;;;;;;34.25;14.63;;;3.90;99.90;;;;;;5053189;28;20040;-71
2022/12/19 06:12:46;;;;;;;38.42;14.25;;;3.90;99.90;;;;;;5053227;28;20127;-70
2022/12/19 06:15:12;;;;;;;28.30;13.40;;;3.90;99.90;;;;;;5052528;28;20409;-71
2022/12/19 06:17:38;;;;;;;27.75;14.25;;;3.90;99.90;;;;;;5051581;28;20037;-71
2022/12/19 06:20:04;;;;;;;32.60;14.77;;;4.00;99.90;;;;;;5051884;28;20048;-71
2022/12/19 06:22:29;;;;;;;28.00;13.85;;;3.90;99.90;;;;;;5052170;28;20497;-70
2022/12/19 06:24:55;;;;;;;24.20;13.45;;;4.00;99.90;;;;;;5050488;28;20128;-71
2022/12/19 06:27:20;;;;;;;29.63;14.90;;;3.90;99.90;;;;;;5053060;28;20072;-71
2022/12/19 06:29:46;;;;;;;30.58;13.65;;;4.00;99.90;;;;;;5052787;28;20029;-71
2022/12/19 06:32:12;;;;;;;34.13;14.73;;;4.00;99.90;;;;;;5052719;28;20048;-73
2022/12/19 06:34:37;;;;;;;31.40;14.93;;;4.00;99.90;;;;;;5050879;28;20151;-74
2022/12/19 06:37:03;;;;;;;30.83;14.18;;;4.00;99.90;;;;;;5051363;28;20065;-73
2022/12/19 06:39:28;;;;;;;25.98;13.43;;;4.10;99.90;;;;;;5051057;28;20048;-73
2022/12/19 06:44:38;;;;;;;26.45;13.00;;;4.10;99.90;;;;;;5051797;28;20108;-72
2022/12/19 06:47:03;;;;;;;26.98;13.07;;;4.10;99.90;;;;;;5051176;28;20041;-72
2022/12/19 06:49:29;;;;;;;30.55;13.77;;;4.10;99.90;;;;;;5052580;28;20402;-72
2022/12/19 06:51:54;;;;;;;32.75;14.70;;;4.10;99.90;;;;;;5050875;28;20044;-73
2022/12/19 06:54:20;;;;;;;32.00;14.60;;;4.10;99.90;;;;;;5050210;28;20151;-72
2022/12/19 06:56:46;;;;;;;29.27;13.88;;;4.20;99.90;;;;;;5050871;28;20037;-73
2022/12/19 06:59:13;;;;;;;23.80;12.60;;;4.20;99.90;;;;;;5050776;28;20044;-72
2022/12/19 07:01:48;;;;;;;27.13;14.85;;;4.20;99.90;;;;;;5050702;28;20501;-72
2022/12/19 07:04:17;;;;;;;27.20;14.00;;;4.20;99.90;;;;;;5033781;28;20402;-71
2022/12/19 07:06:43;;;;;;;26.25;13.32;;;4.20;99.90;;;;;;5051916;28;20036;-71
2022/12/19 07:09:09;;;;;;;29.80;15.27;;;4.20;99.90;;;;;;5050764;28;20040;-71
2022/12/19 07:11:34;;;;;;;29.08;13.98;;;4.20;99.90;;;;;;5033900;28;20110;-72
2022/12/19 07:14:00;;;;;;;30.58;14.88;;;4.20;99.90;;;;;;5051456;28;20497;-72
2022/12/19 07:16:26;;;;;;;28.08;14.93;;;4.20;99.90;;;;;;5052080;28;20490;-72
2022/12/19 07:18:52;;;;;;;32.30;13.60;;;4.20;99.90;;;;;;5048262;28;20032;-72
2022/12/19 07:21:18;;;;;;;30.52;13.93;;;4.30;99.90;;;;;;5051631;28;20043;-72
2022/12/19 07:23:44;;;;;;;25.77;14.05;;;4.30;99.90;;;;;;5051973;28;20029;-71
2022/12/19 07:26:10;;;;;;;21.48;12.27;;;4.30;99.90;;;;;;5058564;28;20040;-71
2022/12/19 07:28:37;;;;;;;27.08;12.25;;;4.30;99.90;;;;;;5064090;28;20037;-70
2022/12/19 07:31:02;;;;;;;29.55;13.35;;;4.30;99.90;;;;;;5063654;28;20064;-72
2022/12/19 07:33:28;;;;;;;27.35;12.98;;;4.30;99.90;;;;;;5060802;28;20099;-72
2022/12/19 07:35:54;;;;;;;24.13;12.63;;;4.40;99.90;;;;;;5058519;28;20044;-72
2022/12/19 07:38:19;;;;;;;28.50;13.23;;;4.40;99.90;;;;;;5060337;28;20075;-72
2022/12/19 07:40:45;;;;;;;29.55;12.35;;;4.40;99.90;;;;;;5061999;28;20454;-72
2022/12/19 07:43:10;;;;;;;25.75;12.65;;;4.40;99.90;;;;;;5060478;28;20064;-72
2022/12/19 07:45:37;;;;;;;24.42;12.52;;;4.40;99.90;;;;;;5057137;28;20700;-73
2022/12/19 07:48:05;;;;;;;21.60;11.07;;;4.50;99.90;;;;;;5060233;28;20128;-72
2022/12/19 07:50:31;;;;;;;26.65;13.13;;;4.50;99.90;;;;;;5061732;28;20033;-73
2022/12/19 07:52:57;;;;;;;21.98;11.27;;;4.50;99.90;;;;;;5060521;28;20423;-73
2022/12/19 07:55:24;;;;;;;21.67;11.40;;;4.50;99.90;;;;;;5059607;28;20043;-72
2022/12/19 07:57:50;;;;;;;23.30;11.88;;;4.50;99.90;;;;;;5054989;28;20045;-71
2022/12/19 08:00:16;;;;;;;20.15;10.82;;;4.60;99.90;;;;;;5050816;28;20512;-71
2022/12/19 08:02:42;;;;;;;21.65;10.77;;;4.60;99.90;;;;;;5050075;28;20049;-71
2022/12/19 08:05:08;;;;;;;20.50;11.13;;;4.60;99.90;;;;;;5050305;28;20128;-71
2022/12/19 08:07:34;;;;;;;23.35;11.48;;;4.60;99.90;;;;;;5049845;28;20044;-71
2022/12/19 08:09:59;;;;;;;23.25;11.70;;;4.70;99.90;;;;;;5052462;28;20516;-71
2022/12/19 08:12:25;;;;;;;18.35;10.65;;;4.70;99.90;;;;;;5047311;28;20114;-72
2022/12/19 08:14:51;;;;;;;19.38;11.05;;;4.80;99.90;;;;;;5030626;28;20040;-70
2022/12/19 08:17:17;;;;;;;20.50;11.43;;;4.80;99.90;;;;;;5050099;28;20118;-69
2022/12/19 08:19:43;;;;;;;20.73;10.80;;;4.80;99.90;;;;;;5057889;28;20036;-70
2022/12/19 08:22:08;;;;;;;22.90;11.32;;;4.90;99.90;;;;;;5059383;28;20045;-70
2022/12/19 08:24:34;;;;;;;19.83;10.25;;;4.80;99.90;;;;;;5064593;28;20036;-69
2022/12/19 08:27:00;;;;;;;23.77;11.15;;;4.80;99.90;;;;;;5067716;28;20032;-69
2022/12/19 08:29:25;;;;;;;23.23;11.13;;;4.90;99.90;;;;;;5069058;28;20033;-68
2022/12/19 08:31:51;;;;;;;18.10;10.20;;;5.00;99.90;;;;;;5067807;28;20040;-68
2022/12/19 08:34:17;;;;;;;22.17;11.05;;;5.00;99.90;;;;;;5066389;28;20033;-68
2022/12/19 08:36:42;;;;;;;21.00;10.90;;;5.00;99.90;;;;;;5068246;28;20087;-68
2022/12/19 08:39:08;;;;;;;18.67;10.55;;;5.10;99.90;;;;;;5069186;28;20115;-68
2022/12/19 08:41:33;;;;;;;20.35;10.75;;;5.10;99.90;;;;;;5068962;28;20051;-68
2022/12/19 08:43:59;;;;;;;23.30;12.50;;;5.10;99.90;;;;;;5068801;28;20413;-68
2022/12/19 08:46:25;;;;;;;22.92;12.15;;;5.20;99.90;;;;;;5055184;28;20040;-67
2022/12/19 08:48:51;;;;;;;19.08;11.50;;;5.10;99.90;;;;;;5072866;28;20048;-70
2022/12/19 08:51:18;;;;;;;20.35;11.43;;;5.20;99.90;;;;;;5075861;28;20519;-70
2022/12/19 08:53:45;;;;;;;17.70;10.60;;;5.20;99.90;;;;;;5073239;28;20068;-68
2022/12/19 08:56:13;;;;;;;21.45;10.98;;;5.20;99.90;;;;;;5072357;28;20041;-68
2022/12/19 08:58:39;;;;;;;23.05;11.32;;;5.20;99.90;;;;;;5071615;28;20049;-68
2022/12/19 09:01:07;;;;;;;20.80;11.43;;;5.30;99.90;;;;;;5076220;28;20480;-68
2022/12/19 09:03:34;;;;;;;20.85;11.63;;;5.30;99.90;;;;;;5071643;28;20048;-68
2022/12/19 09:06:02;;;;;;;21.80;11.85;;;5.40;99.90;;;;;;5072563;28;20082;-68
2022/12/19 09:08:28;;;;;;;23.52;12.57;;;5.40;99.90;;;;;;5074470;28;20048;-68
2022/12/19 09:10:58;;;;;;;22.65;12.10;;;5.40;99.90;;;;;;5074476;28;20374;-68
2022/12/19 09:13:25;;;;;;;21.10;12.43;;;5.50;99.90;;;;;;5074589;28;20036;-68
2022/12/19 09:16:01;;;;;;;19.90;12.00;;;5.50;99.90;;;;;;5073827;28;20135;-68
2022/12/19 09:18:27;;;;;;;23.48;12.05;;;5.60;99.90;;;;;;5074449;28;20443;-68
2022/12/19 09:20:54;;;;;;;24.65;10.93;;;5.60;99.90;;;;;;5073040;28;20052;-68
2022/12/19 09:23:20;;;;;;;25.42;12.57;;;5.60;99.90;;;;;;5074032;28;20165;-68
2022/12/19 09:25:46;;;;;;;23.38;12.60;;;5.60;99.90;;;;;;5073267;28;20484;-68
2022/12/19 09:28:12;;;;;;;22.65;12.10;;;5.60;99.90;;;;;;5074247;28;20121;-68
2022/12/19 09:30:37;;;;;;;28.50;12.38;;;5.70;99.90;;;;;;5073932;28;20045;-68
2022/12/19 09:33:03;;;;;;;23.25;11.68;;;5.70;99.90;;;;;;5074117;28;20101;-68
2022/12/19 09:35:29;;;;;;;23.80;12.30;;;5.70;99.90;;;;;;5072071;28;20041;-67
2022/12/19 09:37:54;;;;;;;26.05;13.30;;;5.80;99.90;;;;;;5074006;28;20050;-68
2022/12/19 09:40:20;;;;;;;24.17;12.40;;;5.80;99.90;;;;;;5072594;28;20397;-68
2022/12/19 09:42:58;;;;;;;24.73;11.63;;;5.80;99.90;;;;;;5073903;28;20086;-68
2022/12/19 09:45:27;;;;;;;24.20;11.75;;;5.80;99.90;;;;;;5072937;28;20040;-69
2022/12/19 09:47:57;;;;;;;22.38;11.52;;;5.90;99.90;;;;;;5072564;28;20064;-68
2022/12/19 09:50:55;;;;;;;22.08;11.90;;;5.90;99.90;;;;;;5072167;28;20048;-68
2022/12/19 09:53:28;;;;;;;27.17;12.65;;;5.90;99.90;;;;;;5073835;28;20059;-68
2022/12/19 09:55:55;;;;;;;19.33;10.65;;;5.90;99.90;;;;;;5072967;28;20049;-67
2022/12/19 09:58:39;;;;;;;22.30;12.13;;;5.90;99.90;;;;;;5071253;28;20060;-68
2022/12/19 10:01:24;;;;;;;23.48;12.25;;;6.00;99.90;;;;;;5073356;28;20419;-67
2022/12/19 10:04:01;;;;;;;23.35;11.60;;;6.00;99.90;;;;;;5071375;28;20094;-67
2022/12/19 10:06:29;;;;;;;25.67;12.20;;;6.00;99.90;;;;;;5071965;28;20040;-68
2022/12/19 10:08:54;;;;;;;22.42;11.73;;;6.00;99.90;;;;;;5073401;28;20051;-68
2022/12/19 10:11:37;;;;;;;21.63;11.45;;;6.10;99.90;;;;;;5055183;28;20040;-68
2022/12/19 10:14:21;;;;;;;21.25;11.02;;;6.00;99.90;;;;;;5072870;28;20041;-68
2022/12/19 10:17:14;;;;;;;23.08;11.60;;;6.10;99.90;;;;;;5073369;28;20094;-67
2022/12/19 10:19:45;;;;;;;;;;;6.10;99.90;;;;;;5073782;28;20036;-68
2022/12/19 10:22:32;;;;;;;18.73;10.43;;;6.20;99.90;;;;;;5061375;28;19974;-68
2022/12/19 10:25:12;;;;;;;14.95;9.45;;;6.20;99.90;;;;;;5050991;28;20525;-68
2022/12/19 10:27:51;;;;;;;20.15;10.55;;;6.20;99.90;;;;;;5052931;28;20045;-68
2022/12/19 10:30:20;;;;;;;18.50;10.38;;;6.20;99.90;;;;;;5053062;28;20112;-68
2022/12/19 10:32:56;;;;;;;21.30;10.50;;;6.20;99.90;;;;;;5052994;28;20448;-68
2022/12/19 10:35:27;;;;;;;19.33;10.93;;;6.20;99.90;;;;;;5050505;28;20037;-68
2022/12/19 10:38:15;;;;;;;19.80;10.77;;;6.20;99.90;;;;;;5053106;28;20041;-68
2022/12/19 10:41:15;;;;;;;20.70;10.25;;;6.30;99.90;;;;;;5051676;28;20099;-68
2022/12/19 10:44:06;;;;;;;19.38;10.35;;;6.30;99.90;;;;;;5029143;28;20557;-67
2022/12/19 10:46:41;;;;;;;22.67;10.48;;;6.30;99.90;;;;;;5052949;28;20045;-68
2022/12/19 10:49:22;;;;;;;19.58;10.23;;;6.30;99.90;;;;;;5052691;28;20128;-68
2022/12/19 10:52:03;;;;;;;25.05;10.80;;;6.30;99.90;;;;;;5051176;28;20055;-68
2022/12/19 10:54:38;;;;;;;23.55;11.23;;;6.50;99.90;;;;;;5033600;28;20091;-68
2022/12/19 10:57:17;;;;;;;18.92;10.05;;;6.50;99.90;;;;;;5052702;28;20055;-68
2022/12/19 10:59:53;;;;;;;21.00;11.45;;;6.50;99.90;;;;;;5052338;28;20087;-68
2022/12/19 11:02:40;;;;;;;17.80;9.68;;;6.50;99.90;;;;;;5052240;28;20049;-68
2022/12/19 11:05:45;;;;;;;19.42;10.52;;;6.40;99.90;;;;;;5033629;28;20040;-68
2022/12/19 11:08:19;;;;;;;16.92;9.48;;;6.50;99.90;;;;;;5050485;28;20067;-68
2022/12/19 11:10:46;;;;;;;18.30;10.10;;;6.50;99.90;;;;;;5052004;28;20045;-68
2022/12/19 11:13:23;;;;;;;19.58;10.57;;;6.50;99.90;;;;;;5050661;28;20120;-68
2022/12/19 11:15:55;;;;;;;19.73;10.73;;;6.50;99.90;;;;;;5051393;28;20040;-68
2022/12/19 11:18:21;;;;;;;17.20;9.32;;;6.60;99.90;;;;;;5052124;28;20424;-67
2022/12/19 11:21:13;;;;;;;17.63;9.43;;;6.60;99.90;;;;;;5051798;28;20124;-68
2022/12/19 11:23:48;;;;;;;18.23;9.37;;;6.50;99.90;;;;;;5051642;28;20516;-68
2022/12/19 11:26:32;;;;;;;14.40;9.45;;;6.60;99.90;;;;;;5051909;28;20609;-68
2022/12/19 11:29:02;;;;;;;17.80;9.18;;;6.60;99.90;;;;;;5052011;28;20041;-68
2022/12/19 11:31:28;;;;;;;18.48;9.50;;;6.60;99.90;;;;;;5051682;28;20485;-68
2022/12/19 11:34:04;;;;;;;20.33;9.32;;;6.60;99.90;;;;;;5050910;28;20041;-68
2022/12/19 11:36:56;;;;;;;18.83;9.88;;;6.60;99.90;;;;;;5051611;28;20509;-68
2022/12/19 11:39:27;;;;;;;17.10;9.07;;;6.70;99.90;;;;;;5051603;28;20531;-68
2022/12/19 11:42:19;;;;;;;16.92;10.27;;;6.70;99.90;;;;;;5050510;28;20081;-68
2022/12/19 11:45:09;;;;;;;16.48;9.50;;;6.70;99.90;;;;;;5049658;28;20041;-67
2022/12/19 11:47:41;;;;;;;15.45;8.98;;;6.70;99.90;;;;;;5050485;28;20482;-68
2022/12/19 11:50:21;;;;;;;17.23;9.32;;;6.70;99.90;;;;;;5051622;28;20041;-67
2022/12/19 11:53:05;;;;;;;15.25;8.80;;;6.70;99.90;;;;;;5050169;28;20493;-67
2022/12/19 11:55:59;;;;;;;16.75;9.38;;;6.70;99.90;;;;;;5051001;28;20120;-67
2022/12/19 11:58:30;;;;;;;17.13;9.15;;;6.70;99.90;;;;;;5051389;28;20476;-68
2022/12/19 12:01:06;;;;;;;18.90;9.55;;;6.80;99.90;;;;;;5051151;28;20124;-68
2022/12/19 12:03:54;;;;;;;17.00;9.18;;;6.80;99.90;;;;;;5051051;28;20112;-68
2022/12/19 12:06:19;;;;;;;16.13;9.32;;;6.80;99.90;;;;;;5051082;28;20567;-67
2022/12/19 12:08:51;;;;;;;17.95;10.02;;;6.80;99.90;;;;;;5033128;28;20080;-67
2022/12/19 12:11:29;;;;;;;17.75;9.48;;;6.80;99.90;;;;;;5051389;28;20041;-68
2022/12/19 12:14:17;;;;;;;16.58;8.98;;;6.80;99.90;;;;;;5050289;28;20132;-67
2022/12/19 12:16:43;;;;;;;17.25;9.68;;;6.80;99.90;;;;;;5051136;28;20102;-68
2022/12/19 12:19:50;;;;;;;19.48;10.68;;;6.90;99.90;;;;;;5051088;28;20124;-67
2022/12/19 12:22:32;;;;;;;17.42;10.35;;;6.90;99.90;;;;;;5050255;28;20509;-67
2022/12/19 12:25:24;;;;;;;16.48;9.23;;;6.90;99.90;;;;;;5050469;28;20049;-67
2022/12/19 12:28:05;;;;;;;17.60;9.15;;;6.90;99.90;;;;;;5050817;28;20044;-67
2022/12/19 12:31:03;;;;;;;16.60;9.20;;;7.00;99.90;;;;;;5050979;28;20397;-68
2022/12/19 12:33:29;;;;;;;19.52;8.32;;;7.00;99.90;;;;;;5050844;28;20466;-67
2022/12/19 12:36:00;;;;;;;21.25;9.88;;;7.00;99.90;;;;;;5049107;28;20116;-68
2022/12/19 12:38:59;;;;;;;18.80;10.10;;;7.00;99.90;;;;;;5050851;28;20044;-68
2022/12/19 12:42:04;;;;;;;15.75;9.30;;;7.10;99.90;;;;;;5050828;28;20590;-67
2022/12/19 12:44:36;;;;;;;14.55;9.25;;;7.10;99.90;;;;;;5048658;28;20122;-68
2022/12/19 12:47:20;;;;;;;17.48;9.65;;;7.10;99.90;;;;;;5032853;28;20510;-67
2022/12/19 12:50:06;;;;;;;19.33;8.93;;;7.10;99.90;;;;;;5050671;28;20048;-67
2022/12/19 12:52:39;;;;;;;17.70;9.88;;;7.10;99.90;;;;;;5050882;28;20049;-67
2022/12/19 12:55:14;;;;;;;17.23;9.02;;;7.10;99.90;;;;;;5048843;28;20048;-67
2022/12/19 12:57:40;;;;;;;15.95;8.75;;;7.10;99.90;;;;;;5050615;28;20044;-68
2022/12/19 13:00:19;;;;;;;21.08;9.65;;;7.10;99.90;;;;;;5049378;28;20098;-67
2022/12/19 13:02:50;;;;;;;14.85;9.02;;;7.10;99.90;;;;;;5050306;28;20076;-67
2022/12/19 13:05:21;;;;;;;16.58;8.80;;;7.10;99.90;;;;;;5050120;28;20037;-67